sensor_id;sensor_type;location;lat;lon;timestamp;P1;durP1;ratioP1;P2;durP2;ratioP2
40154;SDS011;25875;48.202;16.334;2022-12-18T00:00:03;9.07;;;6.90;;
40154;SDS011;25875;48.202;16.334;2022-12-18T00:02:33;9.50;;;7.50;;
40154;SDS011;25875;48.202;16.334;2022-12-18T00:05:00;11.30;;;8.13;;
40154;SDS011;25875;48.202;16.334;2022-12-18T00:07:27;10.07;;;6.80;;
40154;SDS011;25875;48.202;16.334;2022-12-18T00:09:53;8.15;;;6.85;;
40154;SDS011;25875;48.202;16.334;2022-12-18T00:12:20;13.25;;;8.48;;
40154;SDS011;25875;48.202;16.334;2022-12-18T00:14:47;10.85;;;8.50;;
40154;SDS011;25875;48.202;16.334;2022-12-18T00:17:13;11.55;;;8.73;;
40154;SDS011;25875;48.202;16.334;2022-12-18T00:19:42;9.75;;;8.40;;
40154;SDS011;25875;48.202;16.334;2022-12-18T00:22:08;11.40;;;8.45;;
40154;SDS011;25875;48.202;16.334;2022-12-18T00:24:35;10.77;;;7.95;;
40154;SDS011;25875;48.202;16.334;2022-12-18T00:27:03;11.10;;;7.97;;
40154;SDS011;25875;48.202;16.334;2022-12-18T00:29:30;10.35;;;7.20;;
40154;SDS011;25875;48.202;16.334;2022-12-18T00:31:57;12.13;;;8.23;;
40154;SDS011;25875;48.202;16.334;2022-12-18T00:34:23;11.13;;;8.70;;
40154;SDS011;25875;48.202;16.334;2022-12-18T00:36:52;8.50;;;7.40;;
40154;SDS011;25875;48.202;16.334;2022-12-18T00:39:18;11.20;;;7.47;;
40154;SDS011;25875;48.202;16.334;2022-12-18T00:41:46;10.40;;;7.65;;
40154;SDS011;25875;48.202;16.334;2022-12-18T00:44:30;11.82;;;8.73;;
40154;SDS011;25875;48.202;16.334;2022-12-18T00:46:56;9.52;;;6.95;;
40154;SDS011;25875;48.202;16.334;2022-12-18T00:49:23;10.80;;;7.65;;
40154;SDS011;25875;48.202;16.334;2022-12-18T00:51:52;9.82;;;7.50;;
40154;SDS011;25875;48.202;16.334;2022-12-18T00:54:19;9.38;;;7.60;;
40154;SDS011;25875;48.202;16.334;2022-12-18T00:56:46;18.73;;;9.00;;
40154;SDS011;25875;48.202;16.334;2022-12-18T00:59:14;11.07;;;7.72;;
40154;SDS011;25875;48.202;16.334;2022-12-18T01:01:41;9.93;;;7.65;;
40154;SDS011;25875;48.202;16.334;2022-12-18T01:04:07;10.07;;;7.30;;
40154;SDS011;25875;48.202;16.334;2022-12-18T01:06:34;11.57;;;8.20;;
40154;SDS011;25875;48.202;16.334;2022-12-18T01:09:03;9.18;;;7.03;;
40154;SDS011;25875;48.202;16.334;2022-12-18T01:11:30;9.82;;;7.70;;
40154;SDS011;25875;48.202;16.334;2022-12-18T01:14:00;10.85;;;8.40;;
40154;SDS011;25875;48.202;16.334;2022-12-18T01:16:27;13.82;;;7.68;;
40154;SDS011;25875;48.202;16.334;2022-12-18T01:18:54;10.18;;;7.35;;
40154;SDS011;25875;48.202;16.334;2022-12-18T01:21:21;10.23;;;8.25;;
40154;SDS011;25875;48.202;16.334;2022-12-18T01:23:53;10.48;;;8.43;;
40154;SDS011;25875;48.202;16.334;2022-12-18T01:26:22;10.13;;;7.63;;
40154;SDS011;25875;48.202;16.334;2022-12-18T01:28:50;12.35;;;8.70;;
40154;SDS011;25875;48.202;16.334;2022-12-18T01:31:19;10.68;;;8.75;;
40154;SDS011;25875;48.202;16.334;2022-12-18T01:33:54;13.82;;;9.45;;
40154;SDS011;25875;48.202;16.334;2022-12-18T01:36:21;12.90;;;9.82;;
40154;SDS011;25875;48.202;16.334;2022-12-18T01:38:50;14.52;;;9.82;;
40154;SDS011;25875;48.202;16.334;2022-12-18T01:41:19;14.30;;;10.90;;
40154;SDS011;25875;48.202;16.334;2022-12-18T01:43:51;18.17;;;11.98;;
40154;SDS011;25875;48.202;16.334;2022-12-18T01:46:20;15.35;;;9.70;;
40154;SDS011;25875;48.202;16.334;2022-12-18T01:48:48;15.60;;;11.77;;
40154;SDS011;25875;48.202;16.334;2022-12-18T01:51:18;15.23;;;11.13;;
40154;SDS011;25875;48.202;16.334;2022-12-18T01:53:45;16.13;;;11.63;;
40154;SDS011;25875;48.202;16.334;2022-12-18T01:56:13;15.38;;;11.05;;
40154;SDS011;25875;48.202;16.334;2022-12-18T01:58:44;16.98;;;11.98;;
40154;SDS011;25875;48.202;16.334;2022-12-18T02:01:18;15.15;;;11.20;;
40154;SDS011;25875;48.202;16.334;2022-12-18T02:03:46;16.67;;;11.50;;
40154;SDS011;25875;48.202;16.334;2022-12-18T02:06:15;16.63;;;11.82;;
40154;SDS011;25875;48.202;16.334;2022-12-18T02:08:48;19.75;;;12.85;;
40154;SDS011;25875;48.202;16.334;2022-12-18T02:11:27;17.27;;;11.55;;
40154;SDS011;25875;48.202;16.334;2022-12-18T02:14:07;19.65;;;12.48;;
40154;SDS011;25875;48.202;16.334;2022-12-18T02:16:45;17.55;;;12.40;;
40154;SDS011;25875;48.202;16.334;2022-12-18T02:19:37;18.70;;;12.18;;
40154;SDS011;25875;48.202;16.334;2022-12-18T02:22:14;15.98;;;11.68;;
40154;SDS011;25875;48.202;16.334;2022-12-18T02:24:54;18.67;;;13.65;;
40154;SDS011;25875;48.202;16.334;2022-12-18T02:27:33;18.98;;;13.50;;
40154;SDS011;25875;48.202;16.334;2022-12-18T02:30:04;20.85;;;12.50;;
40154;SDS011;25875;48.202;16.334;2022-12-18T02:32:34;18.05;;;12.07;;
40154;SDS011;25875;48.202;16.334;2022-12-18T02:35:08;19.55;;;12.15;;
40154;SDS011;25875;48.202;16.334;2022-12-18T02:37:38;17.97;;;12.97;;
40154;SDS011;25875;48.202;16.334;2022-12-18T02:40:08;17.40;;;12.93;;
40154;SDS011;25875;48.202;16.334;2022-12-18T02:42:39;18.55;;;12.80;;
40154;SDS011;25875;48.202;16.334;2022-12-18T02:45:06;19.50;;;12.30;;
40154;SDS011;25875;48.202;16.334;2022-12-18T02:47:35;20.55;;;12.93;;
40154;SDS011;25875;48.202;16.334;2022-12-18T02:50:06;17.65;;;13.40;;
40154;SDS011;25875;48.202;16.334;2022-12-18T02:52:41;19.52;;;12.10;;
40154;SDS011;25875;48.202;16.334;2022-12-18T02:55:23;20.25;;;12.80;;
40154;SDS011;25875;48.202;16.334;2022-12-18T02:58:03;19.63;;;12.57;;
40154;SDS011;25875;48.202;16.334;2022-12-18T03:00:36;19.63;;;13.05;;
40154;SDS011;25875;48.202;16.334;2022-12-18T03:03:07;17.73;;;12.05;;
40154;SDS011;25875;48.202;16.334;2022-12-18T03:05:40;19.10;;;11.65;;
40154;SDS011;25875;48.202;16.334;2022-12-18T03:08:12;18.88;;;13.27;;
40154;SDS011;25875;48.202;16.334;2022-12-18T03:10:45;20.15;;;13.63;;
40154;SDS011;25875;48.202;16.334;2022-12-18T03:13:21;18.30;;;11.40;;
40154;SDS011;25875;48.202;16.334;2022-12-18T03:15:52;18.88;;;12.52;;
40154;SDS011;25875;48.202;16.334;2022-12-18T03:18:23;18.88;;;12.73;;
40154;SDS011;25875;48.202;16.334;2022-12-18T03:20:54;16.60;;;12.43;;
40154;SDS011;25875;48.202;16.334;2022-12-18T03:23:25;16.02;;;11.38;;
40154;SDS011;25875;48.202;16.334;2022-12-18T03:25:59;18.05;;;11.57;;
40154;SDS011;25875;48.202;16.334;2022-12-18T03:28:33;18.73;;;11.85;;
40154;SDS011;25875;48.202;16.334;2022-12-18T03:31:03;19.50;;;13.32;;
40154;SDS011;25875;48.202;16.334;2022-12-18T03:33:35;21.33;;;13.45;;
40154;SDS011;25875;48.202;16.334;2022-12-18T03:36:06;18.98;;;12.60;;
40154;SDS011;25875;48.202;16.334;2022-12-18T03:38:33;19.98;;;12.68;;
40154;SDS011;25875;48.202;16.334;2022-12-18T03:41:04;17.77;;;12.65;;
40154;SDS011;25875;48.202;16.334;2022-12-18T03:43:43;17.13;;;11.95;;
40154;SDS011;25875;48.202;16.334;2022-12-18T03:46:17;19.30;;;12.45;;
40154;SDS011;25875;48.202;16.334;2022-12-18T03:48:51;20.02;;;13.10;;
40154;SDS011;25875;48.202;16.334;2022-12-18T03:51:24;23.25;;;14.93;;
40154;SDS011;25875;48.202;16.334;2022-12-18T03:53:57;17.85;;;12.55;;
40154;SDS011;25875;48.202;16.334;2022-12-18T03:56:26;18.65;;;12.75;;
40154;SDS011;25875;48.202;16.334;2022-12-18T03:58:59;19.70;;;13.52;;
40154;SDS011;25875;48.202;16.334;2022-12-18T04:01:31;20.13;;;13.27;;
40154;SDS011;25875;48.202;16.334;2022-12-18T04:04:01;21.77;;;12.85;;
40154;SDS011;25875;48.202;16.334;2022-12-18T04:06:30;18.75;;;12.80;;
40154;SDS011;25875;48.202;16.334;2022-12-18T04:08:58;19.90;;;14.35;;
40154;SDS011;25875;48.202;16.334;2022-12-18T04:11:25;20.02;;;13.80;;
40154;SDS011;25875;48.202;16.334;2022-12-18T04:13:54;18.05;;;12.75;;
40154;SDS011;25875;48.202;16.334;2022-12-18T04:16:23;19.60;;;12.10;;
40154;SDS011;25875;48.202;16.334;2022-12-18T04:18:50;19.05;;;12.85;;
40154;SDS011;25875;48.202;16.334;2022-12-18T04:21:16;18.70;;;13.27;;
40154;SDS011;25875;48.202;16.334;2022-12-18T04:23:44;15.60;;;10.38;;
40154;SDS011;25875;48.202;16.334;2022-12-18T04:26:11;20.27;;;14.02;;
40154;SDS011;25875;48.202;16.334;2022-12-18T04:28:38;18.15;;;12.32;;
40154;SDS011;25875;48.202;16.334;2022-12-18T04:31:05;19.90;;;13.55;;
40154;SDS011;25875;48.202;16.334;2022-12-18T04:33:34;18.73;;;12.52;;
40154;SDS011;25875;48.202;16.334;2022-12-18T04:36:02;18.45;;;12.82;;
40154;SDS011;25875;48.202;16.334;2022-12-18T04:38:28;20.17;;;13.73;;
40154;SDS011;25875;48.202;16.334;2022-12-18T04:40:55;21.33;;;13.48;;
40154;SDS011;25875;48.202;16.334;2022-12-18T04:43:22;20.17;;;12.73;;
40154;SDS011;25875;48.202;16.334;2022-12-18T04:45:49;19.52;;;12.32;;
40154;SDS011;25875;48.202;16.334;2022-12-18T04:48:16;19.27;;;13.85;;
40154;SDS011;25875;48.202;16.334;2022-12-18T04:50:44;20.15;;;13.70;;
40154;SDS011;25875;48.202;16.334;2022-12-18T04:53:11;21.65;;;15.00;;
40154;SDS011;25875;48.202;16.334;2022-12-18T04:55:37;19.65;;;12.55;;
40154;SDS011;25875;48.202;16.334;2022-12-18T04:58:04;20.50;;;14.38;;
40154;SDS011;25875;48.202;16.334;2022-12-18T05:00:31;20.33;;;14.35;;
40154;SDS011;25875;48.202;16.334;2022-12-18T05:02:57;20.88;;;13.77;;
40154;SDS011;25875;48.202;16.334;2022-12-18T05:05:27;19.25;;;13.23;;
40154;SDS011;25875;48.202;16.334;2022-12-18T05:07:55;20.25;;;13.73;;
40154;SDS011;25875;48.202;16.334;2022-12-18T05:10:22;20.70;;;13.60;;
40154;SDS011;25875;48.202;16.334;2022-12-18T05:12:49;23.58;;;13.82;;
40154;SDS011;25875;48.202;16.334;2022-12-18T05:15:24;18.77;;;11.15;;
40154;SDS011;25875;48.202;16.334;2022-12-18T05:17:53;17.10;;;11.07;;
40154;SDS011;25875;48.202;16.334;2022-12-18T05:20:20;18.40;;;12.15;;
40154;SDS011;25875;48.202;16.334;2022-12-18T05:22:46;18.48;;;11.65;;
40154;SDS011;25875;48.202;16.334;2022-12-18T05:25:14;19.02;;;12.48;;
40154;SDS011;25875;48.202;16.334;2022-12-18T05:27:41;19.20;;;13.30;;
40154;SDS011;25875;48.202;16.334;2022-12-18T05:30:09;18.85;;;13.82;;
40154;SDS011;25875;48.202;16.334;2022-12-18T05:32:36;18.58;;;13.13;;
40154;SDS011;25875;48.202;16.334;2022-12-18T05:35:04;17.42;;;12.00;;
40154;SDS011;25875;48.202;16.334;2022-12-18T05:37:32;15.30;;;11.00;;
40154;SDS011;25875;48.202;16.334;2022-12-18T05:39:59;18.40;;;12.73;;
40154;SDS011;25875;48.202;16.334;2022-12-18T05:42:27;17.40;;;11.80;;
40154;SDS011;25875;48.202;16.334;2022-12-18T05:44:54;17.35;;;12.10;;
40154;SDS011;25875;48.202;16.334;2022-12-18T05:47:21;17.83;;;12.07;;
40154;SDS011;25875;48.202;16.334;2022-12-18T05:49:47;18.13;;;11.48;;
40154;SDS011;25875;48.202;16.334;2022-12-18T05:52:14;18.00;;;14.05;;
40154;SDS011;25875;48.202;16.334;2022-12-18T05:54:41;18.50;;;11.98;;
40154;SDS011;25875;48.202;16.334;2022-12-18T05:57:08;18.10;;;13.15;;
40154;SDS011;25875;48.202;16.334;2022-12-18T05:59:36;20.95;;;13.35;;
40154;SDS011;25875;48.202;16.334;2022-12-18T06:02:03;20.95;;;13.85;;
40154;SDS011;25875;48.202;16.334;2022-12-18T06:04:30;16.55;;;12.43;;
40154;SDS011;25875;48.202;16.334;2022-12-18T06:06:58;18.95;;;12.27;;
40154;SDS011;25875;48.202;16.334;2022-12-18T06:09:25;19.75;;;12.50;;
40154;SDS011;25875;48.202;16.334;2022-12-18T06:11:52;23.52;;;14.50;;
40154;SDS011;25875;48.202;16.334;2022-12-18T06:14:19;17.60;;;13.68;;
40154;SDS011;25875;48.202;16.334;2022-12-18T06:16:47;17.77;;;13.13;;
40154;SDS011;25875;48.202;16.334;2022-12-18T06:19:18;20.13;;;12.85;;
40154;SDS011;25875;48.202;16.334;2022-12-18T06:21:44;19.08;;;13.07;;
40154;SDS011;25875;48.202;16.334;2022-12-18T06:24:11;21.83;;;13.35;;
40154;SDS011;25875;48.202;16.334;2022-12-18T06:26:39;21.42;;;15.05;;
40154;SDS011;25875;48.202;16.334;2022-12-18T06:29:05;21.42;;;13.60;;
40154;SDS011;25875;48.202;16.334;2022-12-18T06:31:32;20.10;;;13.40;;
40154;SDS011;25875;48.202;16.334;2022-12-18T06:34:02;23.48;;;13.90;;
40154;SDS011;25875;48.202;16.334;2022-12-18T06:36:30;20.27;;;14.85;;
40154;SDS011;25875;48.202;16.334;2022-12-18T06:38:56;20.83;;;13.75;;
40154;SDS011;25875;48.202;16.334;2022-12-18T06:41:23;22.77;;;14.52;;
40154;SDS011;25875;48.202;16.334;2022-12-18T06:43:50;20.48;;;12.90;;
40154;SDS011;25875;48.202;16.334;2022-12-18T06:46:17;23.98;;;14.45;;
40154;SDS011;25875;48.202;16.334;2022-12-18T06:48:46;25.48;;;14.80;;
40154;SDS011;25875;48.202;16.334;2022-12-18T06:51:16;21.10;;;14.73;;
40154;SDS011;25875;48.202;16.334;2022-12-18T06:53:44;23.27;;;14.15;;
40154;SDS011;25875;48.202;16.334;2022-12-18T06:56:11;24.27;;;14.88;;
40154;SDS011;25875;48.202;16.334;2022-12-18T06:58:38;25.65;;;16.92;;
40154;SDS011;25875;48.202;16.334;2022-12-18T07:01:07;24.63;;;15.32;;
40154;SDS011;25875;48.202;16.334;2022-12-18T07:03:35;25.20;;;16.67;;
40154;SDS011;25875;48.202;16.334;2022-12-18T07:06:03;25.00;;;16.20;;
40154;SDS011;25875;48.202;16.334;2022-12-18T07:08:31;22.45;;;15.48;;
40154;SDS011;25875;48.202;16.334;2022-12-18T07:10:58;23.83;;;15.38;;
40154;SDS011;25875;48.202;16.334;2022-12-18T07:13:25;24.80;;;15.43;;
40154;SDS011;25875;48.202;16.334;2022-12-18T07:15:52;28.63;;;17.00;;
40154;SDS011;25875;48.202;16.334;2022-12-18T07:18:19;26.83;;;16.65;;
40154;SDS011;25875;48.202;16.334;2022-12-18T07:20:46;24.10;;;14.77;;
40154;SDS011;25875;48.202;16.334;2022-12-18T07:23:13;24.83;;;15.48;;
40154;SDS011;25875;48.202;16.334;2022-12-18T07:25:41;23.33;;;15.23;;
40154;SDS011;25875;48.202;16.334;2022-12-18T07:28:07;25.90;;;15.07;;
40154;SDS011;25875;48.202;16.334;2022-12-18T07:30:36;22.02;;;14.77;;
40154;SDS011;25875;48.202;16.334;2022-12-18T07:33:03;24.27;;;16.20;;
40154;SDS011;25875;48.202;16.334;2022-12-18T07:35:30;24.25;;;16.85;;
40154;SDS011;25875;48.202;16.334;2022-12-18T07:37:57;21.38;;;14.98;;
40154;SDS011;25875;48.202;16.334;2022-12-18T07:40:24;22.35;;;15.07;;
40154;SDS011;25875;48.202;16.334;2022-12-18T07:42:52;25.63;;;15.95;;
40154;SDS011;25875;48.202;16.334;2022-12-18T07:45:19;24.92;;;15.80;;
40154;SDS011;25875;48.202;16.334;2022-12-18T07:47:45;25.25;;;16.83;;
40154;SDS011;25875;48.202;16.334;2022-12-18T07:50:12;25.23;;;16.40;;
40154;SDS011;25875;48.202;16.334;2022-12-18T07:52:39;26.13;;;17.05;;
40154;SDS011;25875;48.202;16.334;2022-12-18T07:55:07;23.63;;;15.82;;
40154;SDS011;25875;48.202;16.334;2022-12-18T07:57:34;25.02;;;15.98;;
40154;SDS011;25875;48.202;16.334;2022-12-18T08:00:02;24.88;;;16.17;;
40154;SDS011;25875;48.202;16.334;2022-12-18T08:02:30;25.10;;;15.57;;
40154;SDS011;25875;48.202;16.334;2022-12-18T08:04:57;26.30;;;17.52;;
40154;SDS011;25875;48.202;16.334;2022-12-18T08:07:24;26.17;;;16.38;;
40154;SDS011;25875;48.202;16.334;2022-12-18T08:09:51;25.88;;;15.90;;
40154;SDS011;25875;48.202;16.334;2022-12-18T08:12:18;25.17;;;16.90;;
40154;SDS011;25875;48.202;16.334;2022-12-18T08:14:45;25.23;;;16.67;;
40154;SDS011;25875;48.202;16.334;2022-12-18T08:17:13;25.35;;;17.33;;
40154;SDS011;25875;48.202;16.334;2022-12-18T08:19:39;27.08;;;17.05;;
40154;SDS011;25875;48.202;16.334;2022-12-18T08:22:06;26.13;;;18.48;;
40154;SDS011;25875;48.202;16.334;2022-12-18T08:24:33;25.15;;;16.83;;
40154;SDS011;25875;48.202;16.334;2022-12-18T08:27:00;26.80;;;15.82;;
40154;SDS011;25875;48.202;16.334;2022-12-18T08:29:26;28.50;;;18.98;;
40154;SDS011;25875;48.202;16.334;2022-12-18T08:31:53;26.60;;;18.60;;
40154;SDS011;25875;48.202;16.334;2022-12-18T08:34:21;26.85;;;18.30;;
40154;SDS011;25875;48.202;16.334;2022-12-18T08:36:48;24.45;;;16.42;;
40154;SDS011;25875;48.202;16.334;2022-12-18T08:39:15;27.33;;;17.55;;
40154;SDS011;25875;48.202;16.334;2022-12-18T08:41:41;28.67;;;17.10;;
40154;SDS011;25875;48.202;16.334;2022-12-18T08:44:28;27.40;;;17.60;;
40154;SDS011;25875;48.202;16.334;2022-12-18T08:49:32;27.08;;;17.52;;
40154;SDS011;25875;48.202;16.334;2022-12-18T08:51:59;28.65;;;18.67;;
40154;SDS011;25875;48.202;16.334;2022-12-18T08:54:26;28.10;;;19.83;;
40154;SDS011;25875;48.202;16.334;2022-12-18T08:56:54;28.73;;;18.95;;
40154;SDS011;25875;48.202;16.334;2022-12-18T08:59:20;27.33;;;17.83;;
40154;SDS011;25875;48.202;16.334;2022-12-18T09:01:48;33.00;;;20.20;;
40154;SDS011;25875;48.202;16.334;2022-12-18T09:04:15;31.52;;;19.73;;
40154;SDS011;25875;48.202;16.334;2022-12-18T09:06:43;30.10;;;18.75;;
40154;SDS011;25875;48.202;16.334;2022-12-18T09:09:10;30.85;;;20.42;;
40154;SDS011;25875;48.202;16.334;2022-12-18T09:11:37;30.98;;;20.08;;
40154;SDS011;25875;48.202;16.334;2022-12-18T09:14:05;30.08;;;19.83;;
40154;SDS011;25875;48.202;16.334;2022-12-18T09:16:32;34.13;;;20.52;;
40154;SDS011;25875;48.202;16.334;2022-12-18T09:19:00;28.45;;;19.20;;
40154;SDS011;25875;48.202;16.334;2022-12-18T09:21:29;35.35;;;21.00;;
40154;SDS011;25875;48.202;16.334;2022-12-18T09:23:58;29.85;;;19.15;;
40154;SDS011;25875;48.202;16.334;2022-12-18T09:26:25;30.75;;;20.33;;
40154;SDS011;25875;48.202;16.334;2022-12-18T09:28:53;32.05;;;20.55;;
40154;SDS011;25875;48.202;16.334;2022-12-18T09:31:21;31.10;;;20.27;;
40154;SDS011;25875;48.202;16.334;2022-12-18T09:33:49;32.83;;;21.02;;
40154;SDS011;25875;48.202;16.334;2022-12-18T09:36:16;28.77;;;19.40;;
40154;SDS011;25875;48.202;16.334;2022-12-18T09:38:44;35.17;;;20.92;;
40154;SDS011;25875;48.202;16.334;2022-12-18T09:41:22;32.33;;;19.67;;
40154;SDS011;25875;48.202;16.334;2022-12-18T09:44:05;32.75;;;19.88;;
40154;SDS011;25875;48.202;16.334;2022-12-18T09:46:41;31.40;;;19.80;;
40154;SDS011;25875;48.202;16.334;2022-12-18T09:49:13;31.80;;;19.85;;
40154;SDS011;25875;48.202;16.334;2022-12-18T09:51:43;33.78;;;21.60;;
40154;SDS011;25875;48.202;16.334;2022-12-18T09:54:15;32.53;;;18.90;;
40154;SDS011;25875;48.202;16.334;2022-12-18T09:56:49;34.75;;;20.98;;
40154;SDS011;25875;48.202;16.334;2022-12-18T09:59:18;27.63;;;19.60;;
40154;SDS011;25875;48.202;16.334;2022-12-18T10:01:49;29.23;;;19.52;;
40154;SDS011;25875;48.202;16.334;2022-12-18T10:04:16;27.77;;;18.67;;
40154;SDS011;25875;48.202;16.334;2022-12-18T10:06:45;33.95;;;19.30;;
40154;SDS011;25875;48.202;16.334;2022-12-18T10:09:20;26.92;;;17.95;;
40154;SDS011;25875;48.202;16.334;2022-12-18T10:11:58;31.42;;;18.25;;
40154;SDS011;25875;48.202;16.334;2022-12-18T10:14:36;30.52;;;18.90;;
40154;SDS011;25875;48.202;16.334;2022-12-18T10:17:12;26.75;;;18.60;;
40154;SDS011;25875;48.202;16.334;2022-12-18T10:19:47;28.02;;;17.85;;
40154;SDS011;25875;48.202;16.334;2022-12-18T10:22:21;27.08;;;18.10;;
40154;SDS011;25875;48.202;16.334;2022-12-18T10:24:59;27.58;;;17.85;;
40154;SDS011;25875;48.202;16.334;2022-12-18T10:27:33;28.77;;;18.98;;
40154;SDS011;25875;48.202;16.334;2022-12-18T10:30:00;33.17;;;20.50;;
40154;SDS011;25875;48.202;16.334;2022-12-18T10:32:31;31.17;;;18.55;;
40154;SDS011;25875;48.202;16.334;2022-12-18T10:34:58;26.23;;;17.95;;
40154;SDS011;25875;48.202;16.334;2022-12-18T10:37:25;29.75;;;19.13;;
40154;SDS011;25875;48.202;16.334;2022-12-18T10:40:11;31.77;;;20.00;;
40154;SDS011;25875;48.202;16.334;2022-12-18T10:42:40;32.40;;;19.67;;
40154;SDS011;25875;48.202;16.334;2022-12-18T10:45:11;30.75;;;21.20;;
40154;SDS011;25875;48.202;16.334;2022-12-18T10:47:43;30.45;;;18.63;;
40154;SDS011;25875;48.202;16.334;2022-12-18T10:50:20;27.80;;;18.52;;
40154;SDS011;25875;48.202;16.334;2022-12-18T10:52:54;30.05;;;19.50;;
40154;SDS011;25875;48.202;16.334;2022-12-18T10:55:22;30.80;;;19.30;;
40154;SDS011;25875;48.202;16.334;2022-12-18T10:57:51;29.75;;;18.85;;
40154;SDS011;25875;48.202;16.334;2022-12-18T11:00:23;35.35;;;20.92;;
40154;SDS011;25875;48.202;16.334;2022-12-18T11:02:54;29.67;;;19.10;;
40154;SDS011;25875;48.202;16.334;2022-12-18T11:05:26;33.58;;;20.80;;
40154;SDS011;25875;48.202;16.334;2022-12-18T11:07:55;34.05;;;18.75;;
40154;SDS011;25875;48.202;16.334;2022-12-18T11:10:25;27.95;;;18.55;;
40154;SDS011;25875;48.202;16.334;2022-12-18T11:12:56;34.35;;;20.08;;
40154;SDS011;25875;48.202;16.334;2022-12-18T11:15:41;31.50;;;20.63;;
40154;SDS011;25875;48.202;16.334;2022-12-18T11:18:14;30.85;;;18.85;;
40154;SDS011;25875;48.202;16.334;2022-12-18T11:20:49;29.27;;;19.90;;
40154;SDS011;25875;48.202;16.334;2022-12-18T11:23:18;31.52;;;18.90;;
40154;SDS011;25875;48.202;16.334;2022-12-18T11:25:50;34.00;;;20.75;;
40154;SDS011;25875;48.202;16.334;2022-12-18T11:28:29;29.58;;;18.23;;
40154;SDS011;25875;48.202;16.334;2022-12-18T11:31:17;35.85;;;20.58;;
40154;SDS011;25875;48.202;16.334;2022-12-18T11:33:48;30.02;;;18.42;;
40154;SDS011;25875;48.202;16.334;2022-12-18T11:36:22;29.23;;;17.95;;
40154;SDS011;25875;48.202;16.334;2022-12-18T11:38:50;32.20;;;20.00;;
40154;SDS011;25875;48.202;16.334;2022-12-18T11:41:21;31.02;;;19.77;;
40154;SDS011;25875;48.202;16.334;2022-12-18T11:44:15;29.48;;;18.33;;
40154;SDS011;25875;48.202;16.334;2022-12-18T11:46:49;30.63;;;19.55;;
40154;SDS011;25875;48.202;16.334;2022-12-18T11:49:20;31.88;;;19.40;;
40154;SDS011;25875;48.202;16.334;2022-12-18T11:51:50;29.58;;;19.70;;
40154;SDS011;25875;48.202;16.334;2022-12-18T11:54:21;32.40;;;21.15;;
40154;SDS011;25875;48.202;16.334;2022-12-18T11:56:49;32.85;;;19.80;;
40154;SDS011;25875;48.202;16.334;2022-12-18T11:59:23;29.38;;;18.08;;
40154;SDS011;25875;48.202;16.334;2022-12-18T12:01:58;32.08;;;18.50;;
40154;SDS011;25875;48.202;16.334;2022-12-18T12:04:41;31.33;;;18.33;;
40154;SDS011;25875;48.202;16.334;2022-12-18T12:07:30;32.95;;;18.80;;
40154;SDS011;25875;48.202;16.334;2022-12-18T12:10:11;29.42;;;18.17;;
40154;SDS011;25875;48.202;16.334;2022-12-18T12:12:54;31.02;;;18.77;;
40154;SDS011;25875;48.202;16.334;2022-12-18T12:15:37;30.90;;;19.05;;
40154;SDS011;25875;48.202;16.334;2022-12-18T12:18:14;31.10;;;19.55;;
40154;SDS011;25875;48.202;16.334;2022-12-18T12:20:53;31.77;;;20.08;;
40154;SDS011;25875;48.202;16.334;2022-12-18T12:23:33;33.00;;;21.50;;
40154;SDS011;25875;48.202;16.334;2022-12-18T12:26:08;33.85;;;18.77;;
40154;SDS011;25875;48.202;16.334;2022-12-18T12:28:47;30.08;;;18.50;;
40154;SDS011;25875;48.202;16.334;2022-12-18T12:31:26;33.10;;;19.60;;
40154;SDS011;25875;48.202;16.334;2022-12-18T12:34:15;32.10;;;17.92;;
40154;SDS011;25875;48.202;16.334;2022-12-18T12:36:50;33.33;;;19.00;;
40154;SDS011;25875;48.202;16.334;2022-12-18T12:39:28;31.63;;;19.50;;
40154;SDS011;25875;48.202;16.334;2022-12-18T12:41:57;34.25;;;19.35;;
40154;SDS011;25875;48.202;16.334;2022-12-18T12:44:43;34.25;;;21.25;;
40154;SDS011;25875;48.202;16.334;2022-12-18T12:47:17;33.33;;;19.58;;
40154;SDS011;25875;48.202;16.334;2022-12-18T12:49:48;35.75;;;19.85;;
40154;SDS011;25875;48.202;16.334;2022-12-18T12:52:17;33.30;;;20.85;;
40154;SDS011;25875;48.202;16.334;2022-12-18T12:54:54;33.63;;;20.30;;
40154;SDS011;25875;48.202;16.334;2022-12-18T12:57:23;31.02;;;18.75;;
40154;SDS011;25875;48.202;16.334;2022-12-18T12:59:56;36.40;;;18.90;;
40154;SDS011;25875;48.202;16.334;2022-12-18T13:02:33;33.28;;;19.70;;
40154;SDS011;25875;48.202;16.334;2022-12-18T13:05:09;37.28;;;19.75;;
40154;SDS011;25875;48.202;16.334;2022-12-18T13:07:45;33.53;;;21.35;;
40154;SDS011;25875;48.202;16.334;2022-12-18T13:10:23;37.25;;;21.88;;
40154;SDS011;25875;48.202;16.334;2022-12-18T13:12:54;36.83;;;22.42;;
40154;SDS011;25875;48.202;16.334;2022-12-18T13:15:21;34.28;;;20.52;;
40154;SDS011;25875;48.202;16.334;2022-12-18T13:17:56;35.40;;;20.63;;
40154;SDS011;25875;48.202;16.334;2022-12-18T13:20:32;38.42;;;22.27;;
40154;SDS011;25875;48.202;16.334;2022-12-18T13:23:01;38.95;;;21.92;;
40154;SDS011;25875;48.202;16.334;2022-12-18T13:25:45;33.80;;;21.52;;
40154;SDS011;25875;48.202;16.334;2022-12-18T13:28:12;37.97;;;23.00;;
40154;SDS011;25875;48.202;16.334;2022-12-18T13:30:44;35.92;;;22.98;;
40154;SDS011;25875;48.202;16.334;2022-12-18T13:36:35;33.28;;;20.48;;
40154;SDS011;25875;48.202;16.334;2022-12-18T13:39:09;32.80;;;20.00;;
40154;SDS011;25875;48.202;16.334;2022-12-18T13:41:52;33.22;;;21.00;;
40154;SDS011;25875;48.202;16.334;2022-12-18T13:44:29;35.10;;;20.88;;
40154;SDS011;25875;48.202;16.334;2022-12-18T13:46:58;36.47;;;21.70;;
40154;SDS011;25875;48.202;16.334;2022-12-18T13:49:30;34.13;;;21.05;;
40154;SDS011;25875;48.202;16.334;2022-12-18T13:52:14;36.13;;;21.60;;
40154;SDS011;25875;48.202;16.334;2022-12-18T13:54:43;30.50;;;20.05;;
40154;SDS011;25875;48.202;16.334;2022-12-18T13:57:25;35.95;;;21.08;;
40154;SDS011;25875;48.202;16.334;2022-12-18T13:59:53;34.25;;;21.02;;
40154;SDS011;25875;48.202;16.334;2022-12-18T14:02:22;32.72;;;20.58;;
40154;SDS011;25875;48.202;16.334;2022-12-18T14:04:51;39.72;;;25.15;;
40154;SDS011;25875;48.202;16.334;2022-12-18T14:07:19;38.13;;;22.55;;
40154;SDS011;25875;48.202;16.334;2022-12-18T14:09:49;34.53;;;21.42;;
40154;SDS011;25875;48.202;16.334;2022-12-18T14:12:20;34.28;;;20.95;;
40154;SDS011;25875;48.202;16.334;2022-12-18T14:15:10;33.88;;;19.45;;
40154;SDS011;25875;48.202;16.334;2022-12-18T14:17:46;30.88;;;20.17;;
40154;SDS011;25875;48.202;16.334;2022-12-18T14:20:15;33.28;;;20.73;;
40154;SDS011;25875;48.202;16.334;2022-12-18T14:22:43;34.00;;;19.63;;
40154;SDS011;25875;48.202;16.334;2022-12-18T14:25:17;36.22;;;23.42;;
40154;SDS011;25875;48.202;16.334;2022-12-18T14:27:46;33.10;;;21.90;;
40154;SDS011;25875;48.202;16.334;2022-12-18T14:30:25;40.28;;;22.70;;
40154;SDS011;25875;48.202;16.334;2022-12-18T14:32:59;41.00;;;24.50;;
40154;SDS011;25875;48.202;16.334;2022-12-18T14:35:30;39.67;;;24.33;;